This is the latest recevied weather packets stored in our database for station/object N4CRH-13. If no packets are shown the sender has not sent any weather packets the latest 10 day(s).
| Time | Temp. | Humidity | Pressure | Rain* | Wind** | Luminosity | Snow |
|---|---|---|---|---|---|---|---|
| 1778220655 | 5° C | 72% | 1294.5 hPa | 0 mm | - | 0 W/m² | - |
| 1778220352 | 5.56° C | 71% | 1294.5 hPa | 0 mm | - | 0 W/m² | - |
| 1778220049 | 5.56° C | 69% | 1294.6 hPa | 0 mm | - | 0 W/m² | - |
| 1778219744 | 5.56° C | 68% | 1294.8 hPa | 0 mm | - | 0 W/m² | - |
| 1778219442 | 6.11° C | 69% | 1294.6 hPa | 0 mm | - | 0 W/m² | - |
| 1778219138 | 6.67° C | 62% | 1294.6 hPa | 0 mm | - | 0 W/m² | - |
| 1778218835 | 6.11° C | 66% | 1294.3 hPa | 0 mm | - | 0 W/m² | - |
| 1778218532 | 6.67° C | 66% | 1294.5 hPa | 0 mm | - | 0 W/m² | - |
| 1778218231 | 7.78° C | 59% | 1294.5 hPa | 0 mm | - | 0 W/m² | - |
| 1778217927 | 7.78° C | 59% | 1294.3 hPa | 0 mm | - | 0 W/m² | - |
| 1778217624 | 7.22° C | 58% | 1294 hPa | 0 mm | - | 0 W/m² | - |
| 1778217315 | 7.78° C | 56% | 1294 hPa | 0 mm | - | 0 W/m² | - |
| 1778217010 | 7.22° C | 61% | 1294 hPa | 0 mm | - | 0 W/m² | - |
| 1778216707 | 7.78° C | 57% | 1294 hPa | 0 mm | - | 0 W/m² | - |
| 1778216404 | 7.22° C | 64% | 1294 hPa | 0 mm | - | 0 W/m² | - |
| 1778216100 | 7.78° C | 62% | 1293.9 hPa | 0 mm | - | 0 W/m² | - |
| 1778215798 | 7.78° C | 64% | 1294.1 hPa | 0 mm | - | 0 W/m² | - |
| 1778215494 | 7.78° C | 62% | 1294.1 hPa | 0 mm | - | 0 W/m² | - |
| 1778215190 | 7.78° C | 65% | 1294.3 hPa | 0 mm | - | 0 W/m² | - |
| 1778214887 | 7.78° C | 62% | 1294.5 hPa | 0 mm | - | 0 W/m² | - |
| 1778214583 | 7.78° C | 64% | 1294.2 hPa | 0 mm | - | 0 W/m² | - |
| 1778214281 | 8.33° C | 62% | 1294.5 hPa | 0 mm | - | 0 W/m² | - |
| 1778213978 | 8.33° C | 64% | 1294.5 hPa | 0 mm | - | 0 W/m² | - |
| 1778213674 | 8.89° C | 59% | 1294.6 hPa | 0 mm | - | 0 W/m² | - |
| 1778213371 | 9.44° C | 60% | 1294.5 hPa | 0 mm | - | 0 W/m² | - |
* Rain latest hour (hover to see other rain measurements)
** Current wind speed in m/s (hover to see current wind gust speed)